| time (UTC) | temp C | wind direction | speed KPH | gust KPH | rain 1hr cm | rain 24hr cm | rain mn cm | humidity % | barometer mb |
| 20260505183034 | 24 | 182 | 4.8 | 20.9 | 0.00 | 0.00 | 0.00 | 42 | 1015.6 |
| 20260505181536 | 24 | 211 | 4.8 | 19.3 | 0.00 | 0.00 | 0.00 | 43 | 1015.7 |
| 20260505180038 | 24 | 263 | 12.9 | 25.7 | 0.00 | 0.00 | 0.00 | 39 | 1016.3 |
| 20260505174534 | 24 | 202 | 6.4 | 33.8 | 0.00 | 0.00 | 0.00 | 38 | 1016.6 |
| 20260505173031 | 24 | 170 | 1.6 | 24.1 | 0.00 | 0.00 | 0.00 | 41 | 1016.5 |
| 20260505171529 | 23 | 231 | 8.0 | 22.5 | 0.00 | 0.00 | 0.00 | 42 | 1016.5 |
| 20260505170032 | 23 | 139 | 1.6 | 12.9 | 0.00 | 0.00 | 0.00 | 46 | 1016.3 |
| 20260505164529 | 23 | 202 | 4.8 | 14.5 | 0.00 | 0.00 | 0.00 | 46 | 1016.4 |
| 20260505163028 | 23 | 0 | 3.2 | 9.7 | 0.00 | 0.00 | 0.00 | 47 | 1016.7 |
| 20260505161532 | 22 | 206 | 1.6 | 12.9 | 0.00 | 0.00 | 0.00 | 52 | 1016.8 |
| 20260505153027 | 21 | 208 | 1.6 | 8.0 | 0.00 | 0.00 | 0.00 | 53 | 1017.1 |
| 20260505151534 | 21 | 0 | 0.0 | 8.0 | 0.00 | 0.00 | 0.00 | 59 | 1017.3 |
| 20260505124540 | 14 | 258 | 1.6 | 11.3 | 0.00 | 0.00 | 0.00 | 81 | 1016.6 |
| 20260505123030 | 13 | 253 | 1.6 | 9.7 | 0.00 | 0.00 | 0.00 | 82 | 1016.5 |
| 20260505121554 | 12 | 242 | 0.0 | 6.4 | 0.00 | 0.00 | 0.00 | 84 | 1016.3 |
| 20260505120031 | 11 | 0 | 0.0 | 4.8 | 0.00 | 0.00 | 0.00 | 86 | 1016.3 |
| 20260505114533 | 10 | 0 | 0.0 | 0.0 | 0.00 | 0.00 | 0.00 | 86 | 1016.2 |
| 20260505113031 | 10 | 0 | 0.0 | 0.0 | 0.00 | 0.00 | 0.00 | 85 | 1016.1 |
| 20260505111536 | 10 | 0 | 0.0 | 0.0 | 0.00 | 0.00 | 0.00 | 84 | 1016.2 |
| 20260505101539 | 10 | 0 | 0.0 | 0.0 | 0.00 | 0.00 | 0.00 | 83 | 1015.9 |
| 20260505100038 | 10 | 0 | 0.0 | 0.0 | 0.00 | 0.00 | 0.00 | 82 | 1015.8 |
| 20260505094530 | 10 | 0 | 0.0 | 0.0 | 0.00 | 0.00 | 0.00 | 82 | 1015.8 |
| 20260505093031 | 10 | 0 | 0.0 | 0.0 | 0.00 | 0.00 | 0.00 | 82 | 1015.8 |
| 20260505091535 | 10 | 0 | 0.0 | 0.0 | 0.00 | 0.00 | 0.00 | 82 | 1015.7 |
| 20260505090028 | 10 | 0 | 0.0 | 0.0 | 0.00 | 0.00 | 0.00 | 81 | 1015.6 |
| 20260505084532 | 10 | 0 | 0.0 | 0.0 | 0.00 | 0.00 | 0.00 | 81 | 1015.5 |
| 20260505083041 | 10 | 0 | 0.0 | 0.0 | 0.00 | 0.00 | 0.00 | 81 | 1015.4 |
| 20260505081532 | 10 | 0 | 0.0 | 0.0 | 0.00 | 0.00 | 0.00 | 81 | 1015.3 |
| 20260505080043 | 11 | 0 | 0.0 | 0.0 | 0.00 | 0.00 | 0.00 | 80 | 1015.2 |
| 20260505074532 | 11 | 0 | 0.0 | 0.0 | 0.00 | 0.00 | 0.00 | 78 | 1015.1 |
| 20260505073031 | 11 | 0 | 0.0 | 0.0 | 0.00 | 0.00 | 0.00 | 77 | 1015.1 |
| 20260505071537 | 11 | 0 | 0.0 | 0.0 | 0.00 | 0.00 | 0.00 | 75 | 1015.2 |
| 20260505070031 | 12 | 0 | 0.0 | 0.0 | 0.00 | 0.00 | 0.00 | 73 | 1015.2 |
| 20260505064530 | 13 | 0 | 0.0 | 0.0 | 0.00 | 0.00 | 0.00 | 68 | 1015.3 |
| 20260505063042 | 13 | 0 | 0.0 | 1.6 | 0.00 | 0.00 | 0.00 | 66 | 1015.1 |
| 20260505061535 | 14 | 0 | 0.0 | 0.0 | 0.00 | 0.00 | 0.00 | 63 | 1015.2 |
| 20260505060032 | 15 | 0 | 0.0 | 0.0 | 0.00 | 0.00 | 0.00 | 62 | 1015.1 |
| 20260505054541 | 15 | 222 | 0.0 | 4.8 | 0.00 | 0.00 | 0.00 | 61 | 1015.1 |
| 20260505053030 | 15 | 0 | 0.0 | 4.8 | 0.00 | 0.00 | 0.00 | 60 | 1015.3 |
| 20260505051538 | 15 | 0 | 0.0 | 4.8 | 0.00 | 0.00 | 0.00 | 60 | 1015.4 |
| 20260505041543 | 16 | 0 | 0.0 | 3.2 | 0.00 | 0.00 | 0.00 | 58 | 1015.3 |
| 20260505040030 | 16 | 0 | 0.0 | 1.6 | 0.00 | 0.00 | 0.00 | 58 | 1015.3 |
| 20260505034530 | 16 | 0 | 0.0 | 4.8 | 0.00 | 0.00 | 0.00 | 57 | 1015.4 |
| 20260505033032 | 16 | 207 | 0.0 | 3.2 | 0.00 | 0.00 | 0.00 | 56 | 1015.6 |
| 20260505031532 | 17 | 0 | 0.0 | 1.6 | 0.00 | 0.00 | 0.00 | 55 | 1015.6 |
| 20260505030028 | 17 | 0 | 0.0 | 4.8 | 0.00 | 0.00 | 0.00 | 55 | 1015.5 |
| 20260505024529 | 17 | 0 | 0.0 | 3.2 | 0.00 | 0.00 | 0.00 | 55 | 1015.6 |
| 20260505023031 | 17 | 0 | 0.0 | 1.6 | 0.00 | 0.00 | 0.00 | 54 | 1015.2 |
| 20260505021531 | 18 | 0 | 0.0 | 4.8 | 0.00 | 0.00 | 0.00 | 53 | 1015.2 |
| 20260505020045 | 18 | 0 | 0.0 | 1.6 | 0.00 | 0.00 | 0.00 | 53 | 1015.2 |
| 20260505014531 | 18 | 0 | 0.0 | 3.2 | 0.00 | 0.00 | 0.00 | 52 | 1015.1 |
| 20260505013028 | 19 | 0 | 0.0 | 1.6 | 0.00 | 0.00 | 0.00 | 50 | 1014.8 |
| 20260505011533 | 20 | 0 | 0.0 | 0.0 | 0.00 | 0.00 | 0.00 | 48 | 1014.7 |
| 20260505010032 | 20 | 0 | 0.0 | 3.2 | 0.00 | 0.00 | 0.00 | 47 | 1014.6 |
| 20260505004531 | 21 | 223 | 0.0 | 3.2 | 0.00 | 0.00 | 0.00 | 46 | 1014.6 |
| 20260505003031 | 21 | 0 | 0.0 | 1.6 | 0.00 | 0.00 | 0.00 | 45 | 1014.4 |
| 20260505001533 | 22 | 0 | 0.0 | 1.6 | 0.00 | 0.00 | 0.00 | 43 | 1014.4 |
| 20260505000037 | 22 | 0 | 0.0 | 1.6 | 0.00 | 0.00 | 0.00 | 43 | 1014.4 |
| 20260504234528 | 22 | 0 | 0.0 | 1.6 | 0.00 | 0.00 | 0.00 | 41 | 1014.2 |
| 20260504233028 | 23 | 0 | 0.0 | 3.2 | 0.00 | 0.00 | 0.00 | 40 | 1014.0 |
| 20260504231533 | 23 | 0 | 0.0 | 4.8 | 0.00 | 0.00 | 0.00 | 38 | 1013.9 |
| 20260504230031 | 23 | 204 | 0.0 | 11.3 | 0.00 | 0.00 | 0.00 | 36 | 1013.9 |
| 20260504224532 | 24 | 0 | 1.6 | 12.9 | 0.00 | 0.00 | 0.00 | 35 | 1013.9 |
| 20260504223031 | 25 | 0 | 1.6 | 12.9 | 0.00 | 0.00 | 0.00 | 35 | 1014.0 |
| 20260504221528 | 25 | 257 | 0.0 | 11.3 | 0.00 | 0.00 | 0.00 | 33 | 1014.1 |
| 20260504220028 | 25 | 238 | 9.7 | 19.3 | 0.00 | 0.00 | 0.00 | 31 | 1014.1 |
| 20260504214539 | 25 | 238 | 1.6 | 16.1 | 0.00 | 0.00 | 0.00 | 35 | 1014.1 |
| 20260504213031 | 25 | 259 | 4.8 | 17.7 | 0.00 | 0.00 | 0.00 | 34 | 1014.0 |
| 20260504211530 | 25 | 0 | 0.0 | 3.2 | 0.00 | 0.00 | 0.00 | 34 | 1013.9 |
| 20260504210030 | 25 | 0 | 0.0 | 3.2 | 0.00 | 0.00 | 0.00 | 34 | 1013.9 |
| 20260504204529 | 25 | 237 | 3.2 | 6.4 | 0.00 | 0.00 | 0.00 | 33 | 1014.2 |
| 20260504203030 | 25 | 0 | 0.0 | 6.4 | 0.00 | 0.00 | 0.00 | 35 | 1014.2 |
| 20260504201529 | 25 | 229 | 1.6 | 8.0 | 0.00 | 0.00 | 0.00 | 32 | 1014.3 |
| 20260504200033 | 25 | 233 | 4.8 | 12.9 | 0.00 | 0.00 | 0.00 | 33 | 1014.4 |
| 20260504194528 | 25 | 292 | 6.4 | 16.1 | 0.00 | 0.00 | 0.00 | 32 | 1014.7 |
| 20260504193030 | 25 | 251 | 1.6 | 6.4 | 0.00 | 0.00 | 0.00 | 34 | 1014.8 |
| 20260504191528 | 24 | 0 | 0.0 | 6.4 | 0.00 | 0.00 | 0.00 | 35 | 1015.0 |
| 20260504190031 | 24 | 240 | 1.6 | 9.7 | 0.00 | 0.00 | 0.00 | 35 | 1015.2 |
| 20260504184535 | 23 | 224 | 1.6 | 8.0 | 0.00 | 0.00 | 0.00 | 35 | 1015.6 |